createdAt,value
2022-11-08T00:00:01.168Z,10.20
2022-11-08T00:02:28.685Z,10.10
2022-11-08T00:04:56.212Z,10.10
2022-11-08T00:07:41.965Z,10.10
2022-11-08T00:10:28.333Z,10.10
2022-11-08T00:13:13.960Z,10.10
2022-11-08T00:15:41.145Z,10.20
2022-11-08T00:18:08.593Z,10.20
2022-11-08T00:20:35.986Z,10.20
2022-11-08T00:23:03.996Z,10.20
2022-11-08T00:25:31.080Z,10.20
2022-11-08T00:27:58.301Z,10.20
2022-11-08T00:30:25.440Z,10.20
2022-11-08T00:32:52.731Z,10.20
2022-11-08T00:35:19.849Z,10.20
2022-11-08T00:37:46.992Z,10.20
2022-11-08T00:40:14.245Z,10.20
2022-11-08T00:42:41.479Z,10.20
2022-11-08T00:45:09.116Z,10.30
2022-11-08T00:47:36.188Z,10.30
2022-11-08T00:50:03.495Z,10.30
2022-11-08T00:52:30.616Z,10.30
2022-11-08T00:54:58.051Z,10.30
2022-11-08T00:57:41.204Z,10.30
2022-11-08T01:00:13.157Z,10.30
2022-11-08T01:02:40.319Z,10.30
2022-11-08T01:05:07.896Z,10.40
2022-11-08T01:07:35.123Z,10.40
2022-11-08T01:10:02.412Z,10.40
2022-11-08T01:12:29.847Z,10.50
2022-11-08T01:14:57.122Z,10.50
2022-11-08T01:17:24.257Z,10.50
2022-11-08T01:19:51.393Z,10.50
2022-11-08T01:22:18.477Z,10.50
2022-11-08T01:24:45.678Z,10.50
2022-11-08T01:27:12.898Z,10.50
2022-11-08T01:29:40.088Z,10.50
2022-11-08T01:32:07.142Z,10.60
2022-11-08T01:34:34.454Z,10.60
2022-11-08T01:37:01.739Z,10.60
2022-11-08T01:39:33.125Z,10.60
2022-11-08T01:42:00.232Z,10.60
2022-11-08T01:44:27.447Z,10.60
2022-11-08T01:46:54.819Z,10.60
2022-11-08T01:49:31.571Z,10.60
2022-11-08T01:52:07.356Z,10.60
2022-11-08T01:54:56.384Z,10.60
2022-11-08T01:57:34.989Z,10.60
2022-11-08T02:00:06.845Z,10.60
2022-11-08T02:02:35.971Z,10.60
2022-11-08T02:05:06.443Z,10.60
2022-11-08T02:07:34.992Z,10.60
2022-11-08T02:10:03.887Z,10.60
2022-11-08T02:12:31.006Z,10.50
2022-11-08T02:14:58.516Z,10.50
2022-11-08T02:17:25.746Z,10.50
2022-11-08T02:19:52.990Z,10.40
2022-11-08T02:22:46.488Z,10.40
2022-11-08T02:25:13.842Z,10.30
2022-11-08T02:27:41.009Z,10.30
2022-11-08T02:30:08.706Z,10.20
2022-11-08T02:32:42.996Z,10.20
2022-11-08T02:35:13.856Z,10.20
2022-11-08T02:37:41.276Z,10.10
2022-11-08T02:40:09.062Z,10.10
2022-11-08T02:42:38.995Z,10.10
2022-11-08T02:45:07.846Z,10.10
2022-11-08T02:47:35.098Z,10.10
2022-11-08T02:50:02.514Z,10.10
2022-11-08T02:52:29.725Z,10.00
2022-11-08T02:54:56.869Z,9.90
2022-11-08T02:57:24.004Z,9.90
2022-11-08T02:59:51.249Z,9.80
2022-11-08T03:02:18.380Z,9.80
2022-11-08T03:04:45.814Z,9.70
2022-11-08T03:07:12.844Z,9.70
2022-11-08T03:09:39.966Z,9.70
2022-11-08T03:12:07.470Z,9.70
2022-11-08T03:14:34.641Z,9.70
2022-11-08T03:17:01.847Z,9.70
2022-11-08T03:19:29.066Z,9.70
2022-11-08T03:21:56.413Z,9.60
2022-11-08T03:24:23.428Z,9.60
2022-11-08T03:26:50.621Z,9.60
2022-11-08T03:29:17.927Z,9.60
2022-11-08T03:31:45.179Z,9.60
2022-11-08T03:34:12.563Z,9.60
2022-11-08T03:36:39.903Z,9.50
2022-11-08T03:39:07.090Z,9.50
2022-11-08T03:41:34.308Z,9.50
2022-11-08T03:44:01.498Z,9.50
2022-11-08T03:46:28.822Z,9.40
2022-11-08T03:48:55.958Z,9.40
2022-11-08T03:51:23.178Z,9.40
2022-11-08T03:53:50.586Z,9.40
2022-11-08T03:56:17.804Z,9.40
2022-11-08T03:58:44.980Z,9.40
2022-11-08T04:01:12.208Z,9.30
2022-11-08T04:03:39.437Z,9.20
2022-11-08T04:06:06.924Z,9.20
2022-11-08T04:08:34.453Z,9.20
2022-11-08T04:11:20.169Z,9.10
2022-11-08T04:14:05.709Z,9.10
2022-11-08T04:16:33.999Z,9.10
2022-11-08T04:19:20.228Z,9.10
2022-11-08T04:21:49.650Z,9.10
2022-11-08T04:24:17.610Z,9.10
2022-11-08T04:26:45.060Z,9.10
2022-11-08T04:29:13.399Z,9.10
2022-11-08T04:31:40.990Z,9.10
2022-11-08T04:34:08.323Z,9.10
2022-11-08T04:36:36.059Z,9.00
2022-11-08T04:39:03.218Z,9.00
2022-11-08T04:41:30.337Z,9.00
2022-11-08T04:43:57.980Z,9.00
2022-11-08T04:46:27.384Z,9.00
2022-11-08T04:48:56.857Z,9.00
2022-11-08T04:51:32.799Z,9.10
2022-11-08T04:54:02.377Z,9.00
2022-11-08T04:56:30.885Z,9.00
2022-11-08T04:58:59.847Z,9.00
2022-11-08T05:01:30.222Z,9.00
2022-11-08T05:03:58.360Z,9.00
2022-11-08T05:06:31.634Z,9.00
2022-11-08T05:08:59.654Z,8.90
2022-11-08T05:11:29.292Z,8.90
2022-11-08T05:13:56.880Z,8.90
2022-11-08T05:16:29.369Z,8.90
2022-11-08T05:18:56.892Z,8.90
2022-11-08T05:21:43.073Z,9.00
2022-11-08T05:24:12.900Z,8.90
2022-11-08T05:26:43.018Z,9.00
2022-11-08T05:29:11.073Z,9.00
2022-11-08T05:31:38.568Z,9.00
2022-11-08T05:34:07.437Z,9.00
2022-11-08T05:36:35.151Z,9.00
2022-11-08T05:39:02.442Z,9.00
2022-11-08T05:41:30.447Z,9.00
2022-11-08T05:43:57.740Z,9.00
2022-11-08T05:46:25.121Z,9.10
2022-11-08T05:48:52.731Z,9.10
2022-11-08T05:51:21.561Z,9.00
2022-11-08T05:53:49.061Z,9.10
2022-11-08T05:56:17.779Z,9.00
2022-11-08T05:58:45.790Z,9.00
2022-11-08T06:01:15.538Z,9.00
2022-11-08T06:03:43.100Z,9.00
2022-11-08T06:06:13.137Z,9.00
2022-11-08T06:08:44.934Z,9.00
2022-11-08T06:11:17.819Z,8.90
2022-11-08T06:13:44.976Z,8.90
2022-11-08T06:16:14.732Z,8.90
2022-11-08T06:18:42.225Z,8.90
2022-11-08T06:21:12.941Z,8.80
2022-11-08T06:23:40.563Z,8.80
2022-11-08T06:26:08.443Z,8.70
2022-11-08T06:28:36.221Z,8.70
2022-11-08T06:31:05.036Z,8.70
2022-11-08T06:33:32.641Z,8.70
2022-11-08T06:35:59.936Z,8.70
2022-11-08T06:38:27.240Z,8.70
2022-11-08T06:40:54.609Z,8.70
2022-11-08T06:43:22.046Z,8.70
2022-11-08T06:45:49.464Z,8.70
2022-11-08T06:48:16.654Z,8.70
2022-11-08T06:50:44.557Z,8.70
2022-11-08T06:53:13.797Z,8.70
2022-11-08T06:55:41.190Z,8.70
2022-11-08T06:58:08.529Z,8.70
2022-11-08T07:00:35.603Z,8.80
2022-11-08T07:03:04.094Z,8.80
2022-11-08T07:05:33.179Z,8.70
2022-11-08T07:08:01.664Z,8.70
2022-11-08T07:10:31.343Z,8.80
2022-11-08T07:13:04.189Z,8.80
2022-11-08T07:15:32.632Z,8.90
2022-11-08T07:18:11.326Z,8.90
2022-11-08T07:20:40.249Z,8.90
2022-11-08T07:23:09.059Z,8.90
2022-11-08T07:25:36.911Z,9.00
2022-11-08T07:28:07.167Z,9.00
2022-11-08T07:30:35.830Z,9.10
2022-11-08T07:33:03.808Z,9.20
2022-11-08T07:35:31.042Z,9.20
2022-11-08T07:37:58.815Z,9.20
2022-11-08T07:40:26.365Z,9.30
2022-11-08T07:45:41.974Z,9.40
2022-11-08T07:48:13.046Z,9.40
2022-11-08T07:50:41.961Z,9.40
2022-11-08T07:53:09.611Z,9.50
2022-11-08T07:55:38.560Z,9.50
2022-11-08T07:58:06.205Z,9.60
2022-11-08T08:00:38.790Z,9.60
2022-11-08T08:03:08.144Z,9.60
2022-11-08T08:05:42.327Z,9.70
2022-11-08T08:08:10.914Z,9.70
2022-11-08T08:10:38.441Z,9.70
2022-11-08T08:13:06.626Z,9.80
2022-11-08T08:15:34.088Z,9.80
2022-11-08T08:18:03.381Z,9.80
2022-11-08T08:20:32.076Z,9.90
2022-11-08T08:22:59.676Z,9.90
2022-11-08T08:25:29.201Z,10.00
2022-11-08T08:27:58.286Z,10.00
2022-11-08T08:30:25.986Z,10.10
2022-11-08T08:33:26.902Z,10.20
2022-11-08T08:35:54.210Z,10.30
2022-11-08T08:38:21.791Z,10.40
2022-11-08T08:40:49.013Z,10.60
2022-11-08T08:43:16.518Z,10.70
2022-11-08T08:45:44.021Z,10.80
2022-11-08T08:48:11.350Z,10.90
2022-11-08T08:50:38.740Z,10.80
2022-11-08T08:53:07.233Z,10.90
2022-11-08T08:55:35.639Z,11.00
2022-11-08T08:58:02.904Z,11.10
2022-11-08T09:03:17.724Z,11.20
2022-11-08T09:05:46.925Z,11.30
2022-11-08T09:08:14.896Z,11.30
2022-11-08T09:10:42.652Z,11.30
2022-11-08T09:13:10.430Z,11.40
2022-11-08T09:15:39.640Z,11.50
2022-11-08T09:18:07.309Z,11.60
2022-11-08T09:20:34.677Z,11.70
2022-11-08T09:23:03.791Z,11.80
2022-11-08T09:25:31.517Z,11.90
2022-11-08T09:27:58.944Z,11.80
2022-11-08T09:30:26.978Z,11.80
2022-11-08T09:33:02.580Z,11.70
2022-11-08T09:35:30.905Z,11.70
2022-11-08T09:37:58.826Z,11.70
2022-11-08T09:41:04.424Z,11.70
2022-11-08T09:43:44.863Z,11.60
2022-11-08T09:46:17.005Z,11.60
2022-11-08T09:48:45.576Z,11.50
2022-11-08T09:51:24.998Z,11.60
2022-11-08T09:54:01.870Z,11.50
2022-11-08T09:56:31.974Z,11.50
2022-11-08T09:59:20.584Z,11.40
2022-11-08T10:01:49.557Z,11.40
2022-11-08T10:04:22.641Z,11.40
2022-11-08T10:07:15.170Z,11.40
2022-11-08T10:10:01.415Z,11.30
2022-11-08T10:12:47.325Z,11.30
2022-11-08T10:15:17.511Z,11.30
2022-11-08T10:18:17.653Z,11.40
2022-11-08T10:21:05.635Z,11.40
2022-11-08T10:24:03.451Z,11.50
2022-11-08T10:26:36.960Z,11.50
2022-11-08T10:29:14.488Z,11.60
2022-11-08T10:31:43.448Z,11.60
2022-11-08T10:34:18.226Z,11.70
2022-11-08T10:36:48.201Z,11.70
2022-11-08T10:39:18.008Z,11.70
2022-11-08T10:42:10.833Z,11.70
2022-11-08T10:44:40.712Z,11.80
2022-11-08T10:47:14.589Z,11.80
2022-11-08T10:49:43.527Z,11.80
2022-11-08T10:52:31.576Z,11.80
2022-11-08T10:55:01.560Z,11.80
2022-11-08T10:57:31.971Z,11.80
2022-11-08T11:00:27.584Z,11.80
2022-11-08T11:03:16.725Z,11.80
2022-11-08T11:05:59.115Z,11.90
2022-11-08T11:08:26.977Z,11.90
2022-11-08T11:10:55.203Z,11.90
2022-11-08T11:13:24.206Z,12.00
2022-11-08T11:15:57.782Z,12.00
2022-11-08T11:18:32.674Z,12.10
2022-11-08T11:21:17.414Z,12.20
2022-11-08T11:23:56.574Z,12.20
2022-11-08T11:26:46.528Z,12.10
2022-11-08T11:29:26.910Z,12.10
2022-11-08T11:31:55.171Z,12.20
2022-11-08T11:34:28.358Z,12.20
2022-11-08T11:36:58.016Z,12.20
2022-11-08T11:39:32.181Z,12.20
2022-11-08T11:42:39.069Z,12.20
2022-11-08T11:45:40.489Z,12.20
2022-11-08T11:48:29.067Z,12.20
2022-11-08T11:50:57.682Z,12.20
2022-11-08T11:53:33.252Z,12.30
2022-11-08T11:56:25.707Z,12.30
2022-11-08T11:59:21.573Z,12.30
2022-11-08T12:02:26.626Z,12.30
2022-11-08T12:04:59.815Z,12.30
2022-11-08T12:07:30.066Z,12.30
2022-11-08T12:10:02.814Z,12.40
2022-11-08T12:13:14.974Z,12.40
2022-11-08T12:15:49.751Z,12.40
2022-11-08T12:18:41.684Z,12.60
2022-11-08T12:21:23.267Z,12.70
2022-11-08T12:24:20.131Z,13.00
2022-11-08T12:26:56.737Z,13.30
2022-11-08T12:29:53.641Z,13.20
2022-11-08T12:32:39.320Z,13.10
2022-11-08T12:35:09.172Z,13.00
2022-11-08T12:37:54.911Z,12.90
2022-11-08T12:40:49.119Z,12.90
2022-11-08T12:43:21.973Z,12.90
2022-11-08T12:46:19.278Z,12.90
2022-11-08T12:49:06.870Z,12.90
2022-11-08T12:52:17.338Z,12.80
2022-11-08T12:55:08.522Z,12.80
2022-11-08T12:57:36.033Z,12.80
2022-11-08T13:19:45.664Z,13.00
2022-11-08T13:22:34.124Z,13.10
2022-11-08T13:25:13.685Z,13.10
2022-11-08T13:27:45.563Z,13.10
2022-11-08T13:30:14.260Z,13.10
2022-11-08T13:32:54.202Z,13.10
2022-11-08T13:35:31.392Z,13.10
2022-11-08T13:38:23.186Z,13.10
2022-11-08T13:41:02.403Z,13.00
2022-11-08T13:43:31.972Z,13.00
2022-11-08T13:46:23.147Z,13.00
2022-11-08T13:49:17.977Z,13.00
2022-11-08T13:51:45.350Z,13.00
2022-11-08T13:54:21.599Z,13.00
2022-11-08T13:57:01.074Z,13.00
2022-11-08T13:59:30.957Z,13.00
2022-11-08T14:02:30.997Z,13.00
2022-11-08T14:05:18.657Z,13.00
2022-11-08T14:07:56.983Z,13.00
2022-11-08T14:10:32.864Z,13.00
2022-11-08T14:13:24.047Z,13.00
2022-11-08T14:16:13.071Z,13.00
2022-11-08T14:18:40.294Z,13.00
2022-11-08T14:21:08.326Z,13.00
2022-11-08T14:23:42.662Z,13.00
2022-11-08T14:26:23.460Z,13.00
2022-11-08T14:28:53.056Z,13.00
2022-11-08T14:31:30.796Z,13.00
2022-11-08T14:33:59.339Z,13.10
2022-11-08T14:36:28.464Z,13.10
2022-11-08T14:39:19.381Z,13.10
2022-11-08T14:41:51.644Z,13.00
2022-11-08T14:44:19.394Z,13.00
2022-11-08T14:46:46.735Z,13.00
2022-11-08T14:49:13.948Z,13.00
2022-11-08T14:51:43.608Z,12.90
2022-11-08T14:54:22.385Z,12.90
2022-11-08T14:56:50.569Z,12.90
2022-11-08T14:59:17.928Z,12.90
2022-11-08T15:01:48.323Z,12.90
2022-11-08T15:04:21.345Z,12.90
2022-11-08T15:06:56.685Z,12.90
2022-11-08T15:09:34.729Z,12.90
2022-11-08T15:12:40.353Z,12.90
2022-11-08T15:15:20.493Z,12.80
2022-11-08T15:17:48.392Z,12.80
2022-11-08T15:20:21.969Z,12.80
2022-11-08T15:22:52.895Z,12.70
2022-11-08T15:25:35.544Z,12.70
2022-11-08T15:28:23.529Z,12.70
2022-11-08T15:31:03.141Z,12.70
2022-11-08T15:33:36.451Z,12.70
2022-11-08T15:36:12.927Z,12.60
2022-11-08T15:38:43.556Z,12.60
2022-11-08T15:41:33.947Z,12.60
2022-11-08T15:44:15.206Z,12.60
2022-11-08T15:46:42.800Z,12.60
2022-11-08T15:49:27.907Z,12.60
2022-11-08T15:51:56.861Z,12.50
2022-11-08T15:54:25.111Z,12.50
2022-11-08T15:56:54.618Z,12.40
2022-11-08T15:59:25.580Z,12.40
2022-11-08T16:02:02.737Z,12.40
2022-11-08T16:04:30.027Z,12.40
2022-11-08T16:06:58.126Z,12.40
2022-11-08T16:09:25.198Z,12.40
2022-11-08T16:11:52.295Z,12.40
2022-11-08T16:14:22.947Z,12.40
2022-11-08T16:16:50.616Z,12.40
2022-11-08T16:19:22.192Z,12.40
2022-11-08T16:21:49.935Z,12.50
2022-11-08T16:24:17.657Z,12.50
2022-11-08T16:26:46.291Z,12.50
2022-11-08T16:29:22.814Z,12.50
2022-11-08T16:31:51.377Z,12.60
2022-11-08T16:34:18.995Z,12.70
2022-11-08T16:36:47.516Z,12.80
2022-11-08T16:39:17.658Z,12.80
2022-11-08T16:41:45.046Z,12.90
2022-11-08T16:44:12.668Z,12.90
2022-11-08T16:46:40.215Z,12.90
2022-11-08T16:49:13.478Z,13.00
2022-11-08T16:51:40.511Z,13.10
2022-11-08T16:54:18.649Z,13.10
2022-11-08T16:56:45.908Z,13.10
2022-11-08T16:59:13.215Z,13.10
2022-11-08T17:01:40.659Z,13.20
2022-11-08T17:04:07.888Z,13.20
2022-11-08T17:06:35.155Z,13.20
2022-11-08T17:09:02.397Z,13.20
2022-11-08T17:11:29.661Z,13.30
2022-11-08T17:13:57.068Z,13.30
2022-11-08T17:16:24.404Z,13.30
2022-11-08T17:18:53.544Z,13.40
2022-11-08T17:24:08.980Z,13.40
2022-11-08T17:26:36.211Z,13.40
2022-11-08T17:29:03.952Z,13.50
2022-11-08T17:31:31.205Z,13.50
2022-11-08T17:33:58.434Z,13.40
2022-11-08T17:36:25.902Z,13.50
2022-11-08T17:38:53.393Z,13.50
2022-11-08T17:41:20.854Z,13.60
2022-11-08T17:43:48.295Z,13.60
2022-11-08T17:46:15.631Z,13.60
2022-11-08T17:48:43.060Z,13.60
2022-11-08T17:51:12.306Z,13.60
2022-11-08T17:53:39.848Z,13.50
2022-11-08T17:56:07.608Z,13.60
2022-11-08T17:58:35.586Z,13.50
2022-11-08T18:01:06.156Z,13.50
2022-11-08T18:03:34.258Z,13.50
2022-11-08T18:06:07.272Z,13.40
2022-11-08T18:08:39.957Z,13.40
2022-11-08T18:11:07.531Z,13.40
2022-11-08T18:13:35.794Z,13.40
2022-11-08T18:16:12.042Z,13.50
2022-11-08T18:18:39.705Z,13.40
2022-11-08T18:21:07.783Z,13.50
2022-11-08T18:23:35.130Z,13.60
2022-11-08T18:26:02.796Z,13.60
2022-11-08T18:28:30.139Z,13.50
2022-11-08T18:31:06.091Z,13.50
2022-11-08T18:33:33.247Z,13.50
2022-11-08T18:36:07.900Z,13.50
2022-11-08T18:38:36.059Z,13.50
2022-11-08T18:41:03.771Z,13.50
2022-11-08T18:43:31.011Z,13.60
2022-11-08T18:46:02.699Z,13.50
2022-11-08T18:48:30.397Z,13.60
2022-11-08T18:50:57.577Z,13.60
2022-11-08T18:53:24.693Z,13.60
2022-11-08T18:55:52.266Z,13.60
2022-11-08T18:58:20.306Z,13.60
2022-11-08T19:00:48.341Z,13.60
2022-11-08T19:03:15.466Z,13.60
2022-11-08T19:05:47.437Z,13.60
2022-11-08T19:08:15.854Z,13.60
2022-11-08T19:11:08.170Z,13.70
2022-11-08T19:13:37.627Z,13.70
2022-11-08T19:16:06.539Z,13.70
2022-11-08T19:18:34.948Z,13.60
2022-11-08T19:21:08.133Z,13.70
2022-11-08T19:23:35.826Z,13.70
2022-11-08T19:26:05.804Z,13.70
2022-11-08T19:28:36.377Z,13.70
2022-11-08T19:31:05.472Z,13.60
2022-11-08T19:33:33.757Z,13.50
2022-11-08T19:36:05.526Z,13.40
2022-11-08T19:38:34.588Z,13.40
2022-11-08T19:41:03.830Z,13.40
2022-11-08T19:43:33.559Z,13.40
2022-11-08T19:46:02.662Z,13.40
2022-11-08T19:48:36.049Z,13.40
2022-11-08T19:51:08.563Z,13.50
2022-11-08T19:53:36.126Z,13.50
2022-11-08T19:56:06.209Z,13.50
2022-11-08T19:58:34.903Z,13.50
2022-11-08T20:01:40.357Z,13.60
2022-11-08T20:04:10.495Z,13.50
2022-11-08T20:06:38.268Z,13.60
2022-11-08T20:09:06.500Z,13.60
2022-11-08T20:11:37.321Z,13.60
2022-11-08T20:14:05.457Z,13.50
2022-11-08T20:16:38.094Z,13.60
2022-11-08T20:19:11.677Z,13.60
2022-11-08T20:21:40.837Z,13.60
2022-11-08T20:24:09.670Z,13.60
2022-11-08T20:26:38.639Z,13.60
2022-11-08T20:29:07.416Z,13.50
2022-11-08T20:31:35.147Z,13.60
2022-11-08T20:34:05.909Z,13.60
2022-11-08T20:36:35.288Z,13.60
2022-11-08T20:39:06.938Z,13.70
2022-11-08T20:41:37.842Z,13.80
2022-11-08T20:44:06.550Z,13.80
2022-11-08T20:46:34.769Z,13.90
2022-11-08T20:49:02.395Z,13.80
2022-11-08T20:51:30.891Z,13.80
2022-11-08T20:53:59.637Z,13.80
2022-11-08T20:56:27.758Z,13.80
2022-11-08T20:58:54.916Z,13.90
2022-11-08T21:01:24.348Z,13.80
2022-11-08T21:03:52.690Z,13.90
2022-11-08T21:06:24.588Z,13.90
2022-11-08T21:09:05.570Z,13.90
2022-11-08T21:11:37.813Z,14.00
2022-11-08T21:14:05.565Z,14.10
2022-11-08T21:16:47.363Z,14.20
2022-11-08T21:19:20.304Z,14.20
2022-11-08T21:21:47.621Z,14.20
2022-11-08T21:24:14.688Z,14.10
2022-11-08T21:26:41.716Z,14.20
2022-11-08T21:29:08.812Z,14.10
2022-11-08T21:31:36.190Z,14.10
2022-11-08T21:34:03.307Z,14.10
2022-11-08T21:36:30.478Z,14.10
2022-11-08T21:38:57.579Z,14.10
2022-11-08T21:41:24.666Z,14.00
2022-11-08T21:43:51.680Z,14.00
2022-11-08T21:46:24.995Z,14.00
2022-11-08T21:48:58.688Z,14.00
2022-11-08T21:51:26.762Z,14.00
2022-11-08T21:53:55.884Z,14.00
2022-11-08T21:56:31.041Z,14.00
2022-11-08T21:58:58.607Z,14.00
2022-11-08T22:01:30.303Z,13.90
2022-11-08T22:03:58.769Z,14.00
2022-11-08T22:06:26.346Z,14.00
2022-11-08T22:08:53.793Z,14.00
2022-11-08T22:11:20.837Z,14.00
2022-11-08T22:13:47.884Z,14.00
2022-11-08T22:16:14.963Z,13.90
2022-11-08T22:19:03.533Z,13.90
2022-11-08T22:21:38.222Z,13.90
2022-11-08T22:24:10.672Z,13.80
2022-11-08T22:26:38.560Z,13.80
2022-11-08T22:29:06.331Z,13.80
2022-11-08T22:31:33.720Z,13.70
2022-11-08T22:34:01.138Z,13.60
2022-11-08T22:36:28.710Z,13.50
2022-11-08T22:38:55.959Z,13.40
2022-11-08T22:41:23.739Z,13.40
2022-11-08T22:43:51.456Z,13.30
2022-11-08T22:46:19.257Z,13.30
2022-11-08T22:48:46.377Z,13.30
2022-11-08T22:51:14.046Z,13.30
2022-11-08T22:53:41.643Z,13.30
2022-11-08T22:56:11.538Z,13.30
2022-11-08T22:58:39.747Z,13.30
2022-11-08T23:01:08.243Z,13.20
2022-11-08T23:03:35.378Z,13.30
2022-11-08T23:06:02.554Z,13.30
2022-11-08T23:08:30.353Z,13.30
2022-11-08T23:11:18.266Z,13.30
2022-11-08T23:14:04.353Z,13.30
2022-11-08T23:16:40.354Z,13.30
2022-11-08T23:19:27.717Z,13.30
2022-11-08T23:22:14.005Z,13.30
2022-11-08T23:24:43.104Z,13.20
2022-11-08T23:27:30.181Z,13.20
2022-11-08T23:30:16.098Z,13.20
2022-11-08T23:32:45.555Z,13.20
2022-11-08T23:35:14.072Z,13.20
2022-11-08T23:37:41.546Z,13.20
2022-11-08T23:40:29.033Z,13.20
2022-11-08T23:43:31.297Z,13.10
2022-11-08T23:46:03.785Z,13.10
2022-11-08T23:48:30.873Z,13.10
2022-11-08T23:50:58.001Z,13.10
2022-11-08T23:53:25.458Z,13.20
2022-11-08T23:55:56.718Z,13.10
2022-11-08T23:58:24.352Z,13.10
